Time;durP1;ratioP1;P1;durP2;ratioP2;P2;SDS_P1;SDS_P2;PMS_P1;PMS_P2;Temp;Humidity;BMP_temperature;BMP_pressure;BME280_temperature;BME280_humidity;BME280_pressure;Samples;Min_cycle;Max_cycle;Signal;HPM_P1;HPM_P2
2023/04/13 00:01:04;;;;;;;9.57;6.17;;;;;;;;;;5071917;28;20448;-56
2023/04/13 00:03:32;;;;;;;9.57;6.00;;;;;;;;;;5072235;28;20448;-56
2023/04/13 00:05:58;;;;;;;11.87;6.77;;;;;;;;;;5071971;28;20438;-56
2023/04/13 00:08:24;;;;;;;10.57;6.93;;;;;;;;;;5071611;28;20474;-56
2023/04/13 00:10:50;;;;;;;7.83;5.87;;;;;;;;;;5071819;28;20430;-55
2023/04/13 00:13:17;;;;;;;10.37;5.50;;;;;;;;;;5071884;28;20452;-56
2023/04/13 00:15:45;;;;;;;8.37;5.63;;;;;;;;;;5071946;28;20456;-56
2023/04/13 00:18:11;;;;;;;7.23;5.53;;;;;;;;;;5071683;28;20491;-55
2023/04/13 00:20:37;;;;;;;7.93;5.23;;;;;;;;;;5071753;28;20438;-55
2023/04/13 00:23:03;;;;;;;10.60;5.60;;;;;;;;;;5071563;28;20575;-55
2023/04/13 00:25:29;;;;;;;8.10;5.30;;;;;;;;;;5071896;28;20448;-56
2023/04/13 00:27:55;;;;;;;7.47;5.10;;;;;;;;;;5071519;28;20474;-56
2023/04/13 00:30:21;;;;;;;6.57;4.77;;;;;;;;;;5071520;28;20450;-56
2023/04/13 00:32:49;;;;;;;8.23;5.53;;;;;;;;;;5071389;28;20840;-56
2023/04/13 00:35:17;;;;;;;6.97;5.20;;;;;;;;;;5071587;28;20438;-56
2023/04/13 00:37:45;;;;;;;6.67;4.83;;;;;;;;;;5071639;28;20453;-56
2023/04/13 00:40:12;;;;;;;7.63;5.60;;;;;;;;;;5071438;28;20441;-56
2023/04/13 00:42:38;;;;;;;9.27;5.97;;;;;;;;;;5071519;28;20442;-56
2023/04/13 00:45:05;;;;;;;10.63;6.00;;;;;;;;;;5071349;28;20469;-56
2023/04/13 00:47:32;;;;;;;9.07;5.83;;;;;;;;;;5071469;28;20462;-56
2023/04/13 00:50:01;;;;;;;8.50;5.40;;;;;;;;;;5071469;28;20782;-56
2023/04/13 00:52:28;;;;;;;10.33;6.10;;;;;;;;;;5070691;28;20799;-56
2023/04/13 00:54:55;;;;;;;10.63;6.27;;;;;;;;;;5071361;28;20436;-56
2023/04/13 00:57:21;;;;;;;10.30;6.53;;;;;;;;;;5071268;28;20783;-56
2023/04/13 00:59:48;;;;;;;6.83;6.10;;;;;;;;;;5071334;28;20426;-56
2023/04/13 01:02:15;;;;;;;11.30;6.40;;;;;;;;;;5071208;28;20952;-56
2023/04/13 01:04:41;;;;;;;9.53;6.80;;;;;;;;;;5071421;28;20434;-56
2023/04/13 01:07:12;;;;;;;8.83;6.60;;;;;;;;;;5070976;28;20492;-56
2023/04/13 01:09:40;;;;;;;8.97;6.70;;;;;;;;;;5071314;28;20444;-56
2023/04/13 01:12:11;;;;;;;8.63;6.47;;;;;;;;;;5071020;28;20434;-56
2023/04/13 01:14:39;;;;;;;10.33;7.07;;;;;;;;;;5071252;28;20442;-55
2023/04/13 01:17:09;;;;;;;8.77;6.47;;;;;;;;;;5071072;28;20528;-56
2023/04/13 01:19:44;;;;;;;11.13;6.37;;;;;;;;;;5071172;28;20827;-57
2023/04/13 01:22:13;;;;;;;10.83;7.00;;;;;;;;;;5071031;28;20442;-57
2023/04/13 01:24:40;;;;;;;9.10;6.07;;;;;;;;;;5070968;28;20854;-57
2023/04/13 01:27:10;;;;;;;9.10;6.63;;;;;;;;;;5070789;28;20441;-55
2023/04/13 01:29:38;;;;;;;9.17;6.50;;;;;;;;;;5071057;28;20434;-55
2023/04/13 01:32:05;;;;;;;12.80;7.20;;;;;;;;;;5070696;28;20473;-55
2023/04/13 01:34:31;;;;;;;10.67;6.60;;;;;;;;;;5071079;28;20769;-56
2023/04/13 01:36:57;;;;;;;9.43;7.03;;;;;;;;;;5069553;28;20441;-56
2023/04/13 01:39:30;;;;;;;12.17;7.60;;;;;;;;;;5070868;28;20426;-56
2023/04/13 01:41:56;;;;;;;8.77;7.20;;;;;;;;;;5070931;28;20488;-56
2023/04/13 01:44:22;;;;;;;10.47;7.90;;;;;;;;;;5070728;28;20453;-56
2023/04/13 01:46:53;;;;;;;13.20;7.80;;;;;;;;;;5070910;28;20203;-56
2023/04/13 01:49:19;;;;;;;11.93;8.17;;;;;;;;;;5070715;28;20570;-57
2023/04/13 01:51:47;;;;;;;13.53;8.60;;;;;;;;;;5070926;28;20438;-55
2023/04/13 01:54:15;;;;;;;14.57;9.13;;;;;;;;;;5070803;28;20537;-57
2023/04/13 01:56:41;;;;;;;11.10;8.87;;;;;;;;;;5070686;28;20963;-57
2023/04/13 01:59:07;;;;;;;16.27;9.43;;;;;;;;;;5070607;28;20521;-57
2023/04/13 02:01:33;;;;;;;14.63;9.43;;;;;;;;;;5070791;28;20426;-58
2023/04/13 02:04:01;;;;;;;15.90;10.00;;;;;;;;;;5070778;28;20434;-57
2023/04/13 02:06:27;;;;;;;17.83;9.67;;;;;;;;;;5074231;28;20550;-55
2023/04/13 02:08:53;;;;;;;13.60;10.23;;;;;;;;;;5074039;28;20837;-55
2023/04/13 02:11:20;;;;;;;11.93;10.07;;;;;;;;;;5073975;28;20442;-55
2023/04/13 02:13:47;;;;;;;14.03;9.93;;;;;;;;;;5074155;28;20577;-55
2023/04/13 02:16:14;;;;;;;13.93;9.30;;;;;;;;;;5074040;28;20426;-56
2023/04/13 02:18:40;;;;;;;12.23;9.23;;;;;;;;;;5073899;28;20430;-57
2023/04/13 02:21:08;;;;;;;12.17;8.67;;;;;;;;;;5073723;28;20848;-55
2023/04/13 02:23:34;;;;;;;12.73;8.90;;;;;;;;;;5073994;28;20242;-56
2023/04/13 02:26:01;;;;;;;12.97;9.20;;;;;;;;;;5073933;28;20467;-55
2023/04/13 02:28:27;;;;;;;12.83;9.40;;;;;;;;;;5073883;28;20470;-56
2023/04/13 02:30:53;;;;;;;14.63;9.90;;;;;;;;;;5073802;28;20445;-55
2023/04/13 02:33:20;;;;;;;10.60;8.77;;;;;;;;;;5073461;28;20979;-55
2023/04/13 02:35:46;;;;;;;12.47;8.90;;;;;;;;;;5073712;28;20928;-55
2023/04/13 02:38:14;;;;;;;11.43;8.57;;;;;;;;;;5073611;28;20454;-55
2023/04/13 02:40:41;;;;;;;14.37;8.97;;;;;;;;;;5073519;28;20844;-55
2023/04/13 02:43:07;;;;;;;12.10;9.00;;;;;;;;;;5073443;28;20430;-55
2023/04/13 02:45:34;;;;;;;10.03;8.00;;;;;;;;;;5073492;28;20434;-56
2023/04/13 02:48:00;;;;;;;8.60;7.63;;;;;;;;;;5073444;28;20470;-56
2023/04/13 02:50:26;;;;;;;11.60;7.73;;;;;;;;;;5073835;28;20499;-56
2023/04/13 02:52:52;;;;;;;10.73;8.07;;;;;;;;;;5073319;28;20444;-56
2023/04/13 02:55:20;;;;;;;9.00;7.27;;;;;;;;;;5073265;28;20429;-56
2023/04/13 02:57:46;;;;;;;9.47;7.63;;;;;;;;;;5073387;28;20212;-56
2023/04/13 03:00:14;;;;;;;9.33;7.60;;;;;;;;;;5073235;28;20445;-56
2023/04/13 03:02:41;;;;;;;9.73;6.87;;;;;;;;;;5073326;28;20433;-56
2023/04/13 03:05:08;;;;;;;9.63;7.63;;;;;;;;;;5073070;28;20441;-57
2023/04/13 03:07:35;;;;;;;9.70;7.20;;;;;;;;;;5072935;28;20445;-57
2023/04/13 03:10:03;;;;;;;11.13;7.50;;;;;;;;;;5073075;28;20430;-56
2023/04/13 03:12:31;;;;;;;14.30;7.93;;;;;;;;;;5073130;28;20445;-57
2023/04/13 03:15:00;;;;;;;8.73;7.23;;;;;;;;;;5072794;28;20434;-57
2023/04/13 03:17:27;;;;;;;10.07;6.83;;;;;;;;;;5072777;28;20790;-56
2023/04/13 03:19:53;;;;;;;8.57;6.83;;;;;;;;;;5072822;28;20436;-57
2023/04/13 03:22:19;;;;;;;7.73;6.67;;;;;;;;;;5072645;28;20446;-56
2023/04/13 03:24:45;;;;;;;9.33;6.57;;;;;;;;;;5072914;28;20206;-56
2023/04/13 03:27:11;;;;;;;9.63;6.13;;;;;;;;;;5072658;28;20199;-57
2023/04/13 03:29:38;;;;;;;8.03;5.57;;;;;;;;;;5072539;28;20898;-57
2023/04/13 03:32:05;;;;;;;7.73;5.40;;;;;;;;;;5072360;28;20259;-56
2023/04/13 03:34:31;;;;;;;5.90;5.13;;;;;;;;;;5072818;28;20434;-56
2023/04/13 03:36:57;;;;;;;5.57;4.80;;;;;;;;;;5072408;28;20835;-56
2023/04/13 03:39:23;;;;;;;5.03;4.53;;;;;;;;;;5072344;28;20446;-56
2023/04/13 03:41:49;;;;;;;6.13;4.87;;;;;;;;;;5072357;28;20479;-56
2023/04/13 03:44:15;;;;;;;6.50;4.90;;;;;;;;;;5072381;28;20245;-56
2023/04/13 03:46:43;;;;;;;7.20;4.70;;;;;;;;;;5072320;28;20264;-56
2023/04/13 03:49:10;;;;;;;5.33;4.60;;;;;;;;;;5072015;28;20469;-56
2023/04/13 03:51:36;;;;;;;5.60;4.90;;;;;;;;;;5072139;28;20469;-57
2023/04/13 03:54:03;;;;;;;7.23;4.13;;;;;;;;;;5072063;28;20438;-55
2023/04/13 03:56:29;;;;;;;5.27;4.70;;;;;;;;;;5072230;28;20449;-55
2023/04/13 03:58:55;;;;;;;6.10;4.57;;;;;;;;;;5072005;28;20435;-56
2023/04/13 04:01:22;;;;;;;6.87;4.70;;;;;;;;;;5071818;28;20541;-57
2023/04/13 04:03:49;;;;;;;7.23;5.23;;;;;;;;;;5072017;28;20430;-55
2023/04/13 04:06:16;;;;;;;7.20;5.03;;;;;;;;;;5071844;28;20855;-56
2023/04/13 04:08:42;;;;;;;7.27;4.80;;;;;;;;;;5072032;28;20530;-56
2023/04/13 04:11:08;;;;;;;4.50;4.10;;;;;;;;;;5071657;28;20521;-56
2023/04/13 04:13:35;;;;;;;6.40;4.70;;;;;;;;;;5071962;28;20564;-55
2023/04/13 04:16:02;;;;;;;6.90;4.70;;;;;;;;;;5071870;28;20252;-55
2023/04/13 04:18:30;;;;;;;7.07;4.97;;;;;;;;;;5071929;28;20444;-55
2023/04/13 04:20:57;;;;;;;5.63;4.90;;;;;;;;;;5071734;28;20428;-55
2023/04/13 04:23:27;;;;;;;5.83;5.03;;;;;;;;;;5071550;28;20446;-55
2023/04/13 04:25:53;;;;;;;5.07;4.17;;;;;;;;;;5071671;28;20483;-55
2023/04/13 04:28:19;;;;;;;7.03;4.30;;;;;;;;;;5070844;28;20708;-56
2023/04/13 04:30:52;;;;;;;7.40;3.87;;;;;;;;;;5071747;28;20511;-57
2023/04/13 04:33:21;;;;;;;4.80;4.10;;;;;;;;;;5071259;28;20251;-56
2023/04/13 04:35:49;;;;;;;5.97;3.80;;;;;;;;;;5071506;28;20484;-56
2023/04/13 04:38:16;;;;;;;5.73;4.00;;;;;;;;;;5071614;28;20422;-56
2023/04/13 04:40:43;;;;;;;5.27;3.40;;;;;;;;;;5071382;28;20477;-56
2023/04/13 04:43:11;;;;;;;3.83;3.43;;;;;;;;;;5071616;28;20438;-55
2023/04/13 04:45:37;;;;;;;5.53;3.63;;;;;;;;;;5071371;28;20924;-55
2023/04/13 04:48:04;;;;;;;6.40;3.77;;;;;;;;;;5071257;28;20465;-55
2023/04/13 04:50:30;;;;;;;6.67;3.77;;;;;;;;;;5071613;28;20200;-55
2023/04/13 04:52:56;;;;;;;5.50;3.40;;;;;;;;;;5071407;28;20442;-55
2023/04/13 04:55:23;;;;;;;4.40;3.10;;;;;;;;;;5071322;28;20441;-55
2023/04/13 04:57:50;;;;;;;3.17;2.83;;;;;;;;;;5071186;28;20473;-55
2023/04/13 05:00:16;;;;;;;3.47;3.10;;;;;;;;;;5071264;28;20466;-55
2023/04/13 05:02:43;;;;;;;3.23;2.80;;;;;;;;;;5071419;28;20441;-55
2023/04/13 05:05:10;;;;;;;7.03;3.40;;;;;;;;;;5071004;28;20434;-55
2023/04/13 05:07:37;;;;;;;4.53;3.00;;;;;;;;;;5071207;28;20457;-55
2023/04/13 05:10:03;;;;;;;3.33;3.00;;;;;;;;;;5071166;28;20469;-55
2023/04/13 05:12:30;;;;;;;4.43;2.57;;;;;;;;;;5071136;28;20438;-55
2023/04/13 05:14:56;;;;;;;3.03;2.63;;;;;;;;;;5071127;28;20808;-55
2023/04/13 05:17:24;;;;;;;3.50;2.73;;;;;;;;;;5070555;28;20931;-55
2023/04/13 05:19:50;;;;;;;3.10;2.73;;;;;;;;;;5070862;28;20199;-55
2023/04/13 05:22:17;;;;;;;2.73;2.27;;;;;;;;;;5070791;28;20444;-55
2023/04/13 05:24:42;;;;;;;3.37;2.50;;;;;;;;;;5070983;28;20815;-55
2023/04/13 05:27:10;;;;;;;4.37;2.40;;;;;;;;;;5070871;28;20434;-55
2023/04/13 05:29:39;;;;;;;3.53;2.43;;;;;;;;;;5070913;28;20235;-55
2023/04/13 05:32:05;;;;;;;3.40;1.77;;;;;;;;;;5070515;28;20527;-56
2023/04/13 05:34:32;;;;;;;2.97;2.67;;;;;;;;;;5071091;28;20438;-55
2023/04/13 05:36:58;;;;;;;2.80;2.00;;;;;;;;;;5070831;28;20437;-55
2023/04/13 05:39:24;;;;;;;2.93;2.23;;;;;;;;;;5072792;28;20520;-55
2023/04/13 05:41:50;;;;;;;3.80;2.30;;;;;;;;;;5074529;28;20441;-55
2023/04/13 05:44:16;;;;;;;2.00;1.80;;;;;;;;;;5074729;28;20441;-55
2023/04/13 05:46:44;;;;;;;4.63;2.07;;;;;;;;;;5074410;28;20191;-56
2023/04/13 05:49:10;;;;;;;3.13;1.87;;;;;;;;;;5074294;28;20501;-55
2023/04/13 05:51:36;;;;;;;1.93;1.80;;;;;;;;;;5074321;28;20440;-55
2023/04/13 05:54:02;;;;;;;2.17;1.97;;;;;;;;;;5074385;28;20433;-56
2023/04/13 05:56:33;;;;;;;4.73;2.07;;;;;;;;;;5074600;28;20529;-56
2023/04/13 05:58:59;;;;;;;4.43;1.57;;;;;;;;;;5074650;28;20436;-56
2023/04/13 06:01:28;;;;;;;1.93;1.73;;;;;;;;;;5074343;28;20970;-55
2023/04/13 06:03:55;;;;;;;2.57;1.80;;;;;;;;;;5074322;28;20487;-56
2023/04/13 06:06:21;;;;;;;2.53;1.60;;;;;;;;;;5074054;28;20514;-55
2023/04/13 06:08:48;;;;;;;2.40;1.53;;;;;;;;;;5074186;28;20660;-55
2023/04/13 06:11:14;;;;;;;2.97;2.17;;;;;;;;;;5074181;28;20204;-55
2023/04/13 06:13:41;;;;;;;5.40;2.20;;;;;;;;;;5074036;28;20199;-57
2023/04/13 06:16:07;;;;;;;3.07;1.47;;;;;;;;;;5073988;28;20456;-56
2023/04/13 06:18:33;;;;;;;1.70;1.60;;;;;;;;;;5074106;28;20514;-56
2023/04/13 06:21:01;;;;;;;3.10;1.30;;;;;;;;;;5074062;28;20433;-55
2023/04/13 06:23:27;;;;;;;2.70;1.50;;;;;;;;;;5074164;28;20437;-56
2023/04/13 06:25:53;;;;;;;2.63;1.70;;;;;;;;;;5073821;28;20437;-61
2023/04/13 06:28:20;;;;;;;3.37;1.50;;;;;;;;;;5073660;28;20227;-56
2023/04/13 06:30:46;;;;;;;4.40;1.80;;;;;;;;;;5073865;28;20426;-56
2023/04/13 06:33:13;;;;;;;1.40;1.30;;;;;;;;;;5073600;28;20594;-56
2023/04/13 06:35:39;;;;;;;1.83;1.73;;;;;;;;;;5073697;28;20199;-55
2023/04/13 06:38:09;;;;;;;2.50;1.60;;;;;;;;;;5073623;28;20199;-55
2023/04/13 06:40:35;;;;;;;1.97;1.27;;;;;;;;;;5073711;28;20211;-56
2023/04/13 06:43:01;;;;;;;2.70;1.30;;;;;;;;;;5073681;28;20646;-56
2023/04/13 06:45:29;;;;;;;2.40;1.30;;;;;;;;;;5072957;28;20981;-57
2023/04/13 06:47:55;;;;;;;2.27;1.40;;;;;;;;;;5073468;28;20266;-56
2023/04/13 06:50:21;;;;;;;2.90;1.40;;;;;;;;;;5072607;28;20678;-56
2023/04/13 06:52:48;;;;;;;1.30;1.20;;;;;;;;;;5073309;28;20287;-56
2023/04/13 06:55:16;;;;;;;2.13;1.00;;;;;;;;;;5073357;28;20733;-56
2023/04/13 06:57:43;;;;;;;2.17;1.20;;;;;;;;;;5073314;28;20462;-58
2023/04/13 07:00:09;;;;;;;1.77;1.20;;;;;;;;;;5073208;28;20431;-56
2023/04/13 07:02:36;;;;;;;1.63;1.20;;;;;;;;;;5073144;28;20196;-56
2023/04/13 07:05:02;;;;;;;1.60;1.37;;;;;;;;;;5073079;28;20204;-56
2023/04/13 07:07:28;;;;;;;2.27;1.47;;;;;;;;;;5073147;28;20811;-57
2023/04/13 07:09:54;;;;;;;1.53;1.10;;;;;;;;;;5073010;28;20228;-57
2023/04/13 07:12:21;;;;;;;2.40;1.20;;;;;;;;;;5072918;28;20560;-57
2023/04/13 07:14:48;;;;;;;3.40;1.33;;;;;;;;;;5072950;28;20214;-56
2023/04/13 07:17:14;;;;;;;1.17;1.10;;;;;;;;;;5072891;28;20457;-56
2023/04/13 07:19:44;;;;;;;2.07;1.23;;;;;;;;;;5072908;28;20249;-56
2023/04/13 07:22:11;;;;;;;2.40;1.20;;;;;;;;;;5072644;28;20196;-56
2023/04/13 07:24:37;;;;;;;1.43;1.33;;;;;;;;;;5072671;28;20195;-57
2023/04/13 07:27:03;;;;;;;1.60;1.40;;;;;;;;;;5072504;28;20673;-57
2023/04/13 07:29:30;;;;;;;3.57;1.53;;;;;;;;;;5072556;28;20647;-57
2023/04/13 07:31:59;;;;;;;1.40;1.30;;;;;;;;;;5072434;28;20231;-57
2023/04/13 07:34:26;;;;;;;1.37;1.20;;;;;;;;;;5072371;28;20208;-56
2023/04/13 07:36:52;;;;;;;1.80;1.30;;;;;;;;;;5072467;28;20203;-55
2023/04/13 07:39:18;;;;;;;1.40;1.20;;;;;;;;;;5072354;28;20195;-56
2023/04/13 07:41:45;;;;;;;3.27;1.20;;;;;;;;;;5072440;28;20200;-56
2023/04/13 07:44:13;;;;;;;1.70;1.00;;;;;;;;;;5072257;28;20665;-56
2023/04/13 07:46:41;;;;;;;2.20;1.40;;;;;;;;;;5072320;28;20287;-56
2023/04/13 07:49:07;;;;;;;3.03;1.30;;;;;;;;;;5071869;28;20219;-58
2023/04/13 07:51:33;;;;;;;2.90;1.33;;;;;;;;;;5072333;28;20192;-56
2023/04/13 07:53:59;;;;;;;1.20;1.10;;;;;;;;;;5072421;28;20203;-56
2023/04/13 07:56:26;;;;;;;2.40;1.30;;;;;;;;;;5071913;28;20227;-57
2023/04/13 07:58:52;;;;;;;1.20;1.10;;;;;;;;;;5072096;28;20206;-58
2023/04/13 08:01:18;;;;;;;1.77;1.40;;;;;;;;;;5071802;28;20196;-57
2023/04/13 08:03:45;;;;;;;2.10;1.30;;;;;;;;;;5071703;28;20286;-56
2023/04/13 08:06:11;;;;;;;3.77;1.47;;;;;;;;;;5071916;28;20677;-55
2023/04/13 08:08:38;;;;;;;1.20;1.10;;;;;;;;;;5071971;28;20219;-55
2023/04/13 08:11:04;;;;;;;1.50;1.20;;;;;;;;;;5071737;28;20720;-56
2023/04/13 08:13:30;;;;;;;1.97;1.27;;;;;;;;;;5071963;28;20199;-55
2023/04/13 08:15:56;;;;;;;2.10;1.50;;;;;;;;;;5071869;28;20191;-57
2023/04/13 08:18:22;;;;;;;2.23;1.10;;;;;;;;;;5071635;28;20657;-57
2023/04/13 08:20:50;;;;;;;1.30;1.20;;;;;;;;;;5071733;28;20281;-56
2023/04/13 08:23:16;;;;;;;3.53;1.50;;;;;;;;;;5071839;28;20207;-57
2023/04/13 08:25:44;;;;;;;1.97;1.37;;;;;;;;;;5071899;28;20206;-57
2023/04/13 08:28:10;;;;;;;4.03;1.40;;;;;;;;;;5071502;28;20692;-57
2023/04/13 08:30:36;;;;;;;1.77;1.40;;;;;;;;;;5071694;28;20198;-56
2023/04/13 08:33:02;;;;;;;1.53;1.27;;;;;;;;;;5071530;28;20639;-56
2023/04/13 08:35:28;;;;;;;1.10;1.10;;;;;;;;;;5071555;28;20674;-56
2023/04/13 08:37:56;;;;;;;2.30;1.50;;;;;;;;;;5071605;28;20203;-55
2023/04/13 08:40:22;;;;;;;2.17;1.50;;;;;;;;;;5071417;28;20440;-56
2023/04/13 08:42:48;;;;;;;1.40;1.30;;;;;;;;;;5071536;28;20222;-56
2023/04/13 08:45:15;;;;;;;1.70;1.60;;;;;;;;;;5071557;28;20204;-56
2023/04/13 08:47:41;;;;;;;2.37;2.03;;;;;;;;;;5071566;28;20195;-56
2023/04/13 08:50:08;;;;;;;2.13;1.60;;;;;;;;;;5071215;28;20234;-56
2023/04/13 08:52:35;;;;;;;2.63;1.40;;;;;;;;;;5071491;28;20290;-57
2023/04/13 08:55:04;;;;;;;1.70;1.50;;;;;;;;;;5071477;28;20219;-55
2023/04/13 08:57:31;;;;;;;1.70;1.60;;;;;;;;;;5071431;28;20298;-56
2023/04/13 08:59:57;;;;;;;1.80;1.70;;;;;;;;;;5071388;28;20494;-56
2023/04/13 09:02:27;;;;;;;2.37;1.90;;;;;;;;;;5071145;28;20200;-55
2023/04/13 09:04:53;;;;;;;2.60;1.93;;;;;;;;;;5071079;28;20257;-56
2023/04/13 09:07:25;;;;;;;2.33;1.93;;;;;;;;;;5071183;28;20192;-57
2023/04/13 09:09:52;;;;;;;2.70;1.90;;;;;;;;;;5071288;28;20235;-56
2023/04/13 09:12:20;;;;;;;3.23;1.80;;;;;;;;;;5071039;28;20286;-55
2023/04/13 09:14:46;;;;;;;2.20;2.00;;;;;;;;;;5074273;28;20252;-56
2023/04/13 09:17:21;;;;;;;2.10;2.00;;;;;;;;;;5075141;28;20245;-56
2023/04/13 09:19:47;;;;;;;2.50;1.90;;;;;;;;;;5075198;28;20287;-55
2023/04/13 09:22:14;;;;;;;2.17;2.03;;;;;;;;;;5075230;28;20294;-56
2023/04/13 09:24:40;;;;;;;3.30;2.17;;;;;;;;;;5075073;28;20195;-56
2023/04/13 09:27:06;;;;;;;3.17;2.03;;;;;;;;;;5075023;28;20200;-56
2023/04/13 09:29:33;;;;;;;2.43;2.10;;;;;;;;;;5074834;28;20227;-56
2023/04/13 09:32:00;;;;;;;3.30;2.10;;;;;;;;;;5074960;28;20242;-56
2023/04/13 09:34:26;;;;;;;2.10;1.90;;;;;;;;;;5074620;28;20191;-56
2023/04/13 09:36:53;;;;;;;2.77;2.00;;;;;;;;;;5074707;28;20200;-56
2023/04/13 09:39:23;;;;;;;2.63;1.83;;;;;;;;;;5074651;28;20547;-56
2023/04/13 09:41:51;;;;;;;1.83;1.70;;;;;;;;;;5074575;28;20253;-56
2023/04/13 09:44:19;;;;;;;1.90;1.70;;;;;;;;;;5074499;28;20605;-56
2023/04/13 09:46:55;;;;;;;2.17;1.70;;;;;;;;;;5074709;28;20199;-56
2023/04/13 09:49:21;;;;;;;2.00;1.90;;;;;;;;;;5074313;28;20263;-56
2023/04/13 09:51:47;;;;;;;2.00;1.80;;;;;;;;;;5074524;28;20203;-56
2023/04/13 09:54:19;;;;;;;2.27;1.87;;;;;;;;;;5074466;28;20192;-57
2023/04/13 09:56:46;;;;;;;2.63;2.00;;;;;;;;;;5074335;28;20697;-55
2023/04/13 09:59:12;;;;;;;2.27;1.70;;;;;;;;;;5074292;28;20184;-55
2023/04/13 10:01:39;;;;;;;2.43;1.90;;;;;;;;;;5074374;28;20202;-56
2023/04/13 10:04:08;;;;;;;3.73;2.20;;;;;;;;;;5074184;28;20507;-58
2023/04/13 10:06:38;;;;;;;2.50;2.10;;;;;;;;;;5074213;28;20599;-56
2023/04/13 10:09:04;;;;;;;2.57;1.97;;;;;;;;;;5074137;28;20219;-55
2023/04/13 10:11:33;;;;;;;2.83;2.20;;;;;;;;;;5074492;28;20227;-56
2023/04/13 10:14:01;;;;;;;2.50;2.20;;;;;;;;;;5074298;28;20210;-56
2023/04/13 10:16:42;;;;;;;3.13;2.03;;;;;;;;;;5073985;28;20278;-56
2023/04/13 10:19:11;;;;;;;2.23;2.03;;;;;;;;;;5073884;28;20242;-56
2023/04/13 10:21:38;;;;;;;2.57;2.00;;;;;;;;;;5074002;28;20207;-56
2023/04/13 10:24:05;;;;;;;2.27;1.80;;;;;;;;;;5073669;28;20658;-56
2023/04/13 10:26:31;;;;;;;3.67;2.00;;;;;;;;;;5072821;28;20657;-55
2023/04/13 10:28:58;;;;;;;2.60;2.03;;;;;;;;;;5073963;28;20230;-57
2023/04/13 10:31:35;;;;;;;2.27;2.00;;;;;;;;;;5073715;28;20204;-57
2023/04/13 10:34:01;;;;;;;3.93;2.50;;;;;;;;;;5073823;28;20542;-56
2023/04/13 10:36:37;;;;;;;2.30;2.10;;;;;;;;;;5073696;28;20249;-57
2023/04/13 10:39:03;;;;;;;2.60;2.10;;;;;;;;;;5073747;28;20287;-55
2023/04/13 10:41:29;;;;;;;2.43;2.00;;;;;;;;;;5073673;28;20576;-56
2023/04/13 10:44:02;;;;;;;2.57;1.80;;;;;;;;;;5073396;28;20757;-56
2023/04/13 10:46:28;;;;;;;2.70;1.83;;;;;;;;;;5073527;28;20278;-56
2023/04/13 10:48:55;;;;;;;2.53;1.70;;;;;;;;;;5073208;28;20224;-56
2023/04/13 10:51:21;;;;;;;2.93;1.87;;;;;;;;;;5073261;28;20400;-56
2023/04/13 10:53:48;;;;;;;5.77;1.73;;;;;;;;;;5073577;28;20199;-56
2023/04/13 10:56:15;;;;;;;2.17;1.70;;;;;;;;;;5073278;28;20224;-56
2023/04/13 10:58:41;;;;;;;2.60;1.67;;;;;;;;;;5073278;28;20283;-57
2023/04/13 11:01:08;;;;;;;2.40;1.93;;;;;;;;;;5073093;28;20193;-56
2023/04/13 11:03:36;;;;;;;2.50;1.57;;;;;;;;;;5073179;28;20243;-55
2023/04/13 11:06:02;;;;;;;1.77;1.53;;;;;;;;;;5073065;28;20211;-56
2023/04/13 11:08:29;;;;;;;2.33;1.50;;;;;;;;;;5073085;28;20223;-57
2023/04/13 11:10:57;;;;;;;1.40;1.30;;;;;;;;;;5073037;28;20243;-57
2023/04/13 11:13:29;;;;;;;1.90;1.80;;;;;;;;;;5072964;28;20454;-56
2023/04/13 11:16:02;;;;;;;1.83;1.43;;;;;;;;;;5073067;28;20196;-56
2023/04/13 11:18:28;;;;;;;2.20;1.50;;;;;;;;;;5072947;28;20622;-57
2023/04/13 11:20:54;;;;;;;3.73;1.50;;;;;;;;;;5072709;28;20195;-56
2023/04/13 11:23:22;;;;;;;2.80;1.57;;;;;;;;;;5072796;28;20588;-56
2023/04/13 11:25:53;;;;;;;3.03;1.50;;;;;;;;;;5072857;28;20199;-56
2023/04/13 11:28:21;;;;;;;1.93;1.63;;;;;;;;;;5072332;28;20246;-55
2023/04/13 11:30:51;;;;;;;2.17;1.70;;;;;;;;;;5072880;28;20199;-56
2023/04/13 11:33:23;;;;;;;2.23;1.63;;;;;;;;;;5072368;28;20231;-56
2023/04/13 11:35:50;;;;;;;2.03;1.77;;;;;;;;;;5072468;28;20562;-56
2023/04/13 11:38:16;;;;;;;2.00;1.53;;;;;;;;;;5072323;28;20226;-57
2023/04/13 11:40:44;;;;;;;1.93;1.60;;;;;;;;;;5072695;28;20210;-56
2023/04/13 11:43:10;;;;;;;1.73;1.63;;;;;;;;;;5072221;28;20267;-56
2023/04/13 11:45:38;;;;;;;2.53;1.50;;;;;;;;;;5072163;28;20203;-57
2023/04/13 11:48:08;;;;;;;2.47;1.73;;;;;;;;;;5072268;28;20199;-57
2023/04/13 11:50:35;;;;;;;1.70;1.60;;;;;;;;;;5072236;28;20203;-56
2023/04/13 11:53:02;;;;;;;1.70;1.42;;;;;;;;;;5071568;28;20901;-56
2023/04/13 11:55:29;;;;;;;3.00;1.80;;;;;;;;;;5072117;28;20210;-56
2023/04/13 11:57:55;;;;;;;2.20;1.60;;;;;;;;;;5072072;28;20788;-57
2023/04/13 12:00:23;;;;;;;2.17;1.60;;;;;;;;;;5071975;28;20200;-57
2023/04/13 12:02:51;;;;;;;2.53;1.70;;;;;;;;;;5072122;28;20203;-56
2023/04/13 12:05:24;;;;;;;2.43;1.87;;;;;;;;;;5071945;28;20601;-56
2023/04/13 12:07:50;;;;;;;4.93;2.13;;;;;;;;;;5071954;28;20199;-56
2023/04/13 12:10:20;;;;;;;2.83;1.80;;;;;;;;;;5071835;28;20227;-57
2023/04/13 12:12:46;;;;;;;2.33;1.90;;;;;;;;;;5072164;28;20200;-56
2023/04/13 12:15:12;;;;;;;2.37;1.70;;;;;;;;;;5071896;28;20203;-56
2023/04/13 12:17:38;;;;;;;2.80;1.90;;;;;;;;;;5071880;28;20279;-55
2023/04/13 12:20:08;;;;;;;5.07;2.00;;;;;;;;;;5071759;28;20278;-55
2023/04/13 12:22:37;;;;;;;2.10;2.00;;;;;;;;;;5071684;28;20208;-55
2023/04/13 12:25:12;;;;;;;5.63;2.33;;;;;;;;;;5071720;28;20202;-56
2023/04/13 12:27:39;;;;;;;3.67;2.00;;;;;;;;;;5071700;28;20199;-56
2023/04/13 12:30:09;;;;;;;2.27;1.87;;;;;;;;;;5071665;28;20219;-56
2023/04/13 12:32:39;;;;;;;4.87;1.90;;;;;;;;;;5071304;28;20247;-58
2023/04/13 12:35:07;;;;;;;3.23;2.10;;;;;;;;;;5071406;28;20191;-55
2023/04/13 12:37:33;;;;;;;2.77;2.13;;;;;;;;;;5071322;28;20204;-55
2023/04/13 12:39:59;;;;;;;2.57;2.00;;;;;;;;;;5071444;28;20206;-55
2023/04/13 12:42:25;;;;;;;5.70;2.40;;;;;;;;;;5071381;28;20226;-56
2023/04/13 12:44:53;;;;;;;3.90;2.10;;;;;;;;;;5071376;28;20203;-55
2023/04/13 12:47:19;;;;;;;2.50;2.10;;;;;;;;;;5071370;28;20202;-55
2023/04/13 12:49:45;;;;;;;2.37;2.10;;;;;;;;;;5070953;28;20605;-56
2023/04/13 12:52:13;;;;;;;2.03;1.90;;;;;;;;;;5071391;28;20740;-56
2023/04/13 12:54:39;;;;;;;3.37;2.00;;;;;;;;;;5071251;28;20576;-55
2023/04/13 12:57:05;;;;;;;2.30;2.10;;;;;;;;;;5071255;28;20225;-55
2023/04/13 12:59:31;;;;;;;3.77;1.90;;;;;;;;;;5071249;28;20187;-55
2023/04/13 13:01:57;;;;;;;2.20;2.10;;;;;;;;;;5071421;28;20261;-56
2023/04/13 13:04:23;;;;;;;2.47;1.93;;;;;;;;;;5071069;28;20216;-56
2023/04/13 13:06:50;;;;;;;2.60;2.20;;;;;;;;;;5071330;28;20199;-56
2023/04/13 13:09:17;;;;;;;2.53;1.90;;;;;;;;;;5071235;28;20310;-56
2023/04/13 13:11:43;;;;;;;3.53;2.47;;;;;;;;;;5071201;28;20574;-55
2023/04/13 13:14:09;;;;;;;3.80;1.80;;;;;;;;;;5071189;28;20614;-56
2023/04/13 13:16:35;;;;;;;2.70;2.20;;;;;;;;;;5071054;28;20206;-55
2023/04/13 13:19:01;;;;;;;3.27;2.00;;;;;;;;;;5071253;28;20199;-55
2023/04/13 13:21:27;;;;;;;2.73;1.97;;;;;;;;;;5071203;28;20219;-56
2023/04/13 13:23:53;;;;;;;4.20;2.30;;;;;;;;;;5071467;28;20556;-56
2023/04/13 13:26:21;;;;;;;4.20;2.10;;;;;;;;;;5071035;28;20704;-56
2023/04/13 13:28:47;;;;;;;2.53;2.10;;;;;;;;;;5071366;28;20236;-56
2023/04/13 13:31:14;;;;;;;2.40;1.87;;;;;;;;;;5071165;28;20196;-56
2023/04/13 13:33:40;;;;;;;2.93;1.90;;;;;;;;;;5070894;28;20244;-56
2023/04/13 13:36:06;;;;;;;5.77;2.43;;;;;;;;;;5071152;28;20203;-56
2023/04/13 13:38:32;;;;;;;3.43;2.13;;;;;;;;;;5070970;28;20298;-57
2023/04/13 13:40:58;;;;;;;2.73;2.10;;;;;;;;;;5071154;28;20239;-56
2023/04/13 13:43:26;;;;;;;3.90;1.87;;;;;;;;;;5070997;28;20235;-56
2023/04/13 13:45:52;;;;;;;2.83;1.97;;;;;;;;;;5070866;28;20534;-56
2023/04/13 13:48:18;;;;;;;2.77;1.90;;;;;;;;;;5070620;28;20563;-56
2023/04/13 13:50:44;;;;;;;2.93;2.10;;;;;;;;;;5070591;28;20210;-56
2023/04/13 13:53:10;;;;;;;5.37;1.90;;;;;;;;;;5070756;28;20199;-56
2023/04/13 13:55:36;;;;;;;3.57;1.37;;;;;;;;;;5070505;28;20684;-56
2023/04/13 13:58:02;;;;;;;1.47;1.30;;;;;;;;;;5070583;28;20196;-56
2023/04/13 14:00:29;;;;;;;3.70;1.90;;;;;;;;;;5072784;28;20196;-56
2023/04/13 14:02:55;;;;;;;3.07;1.83;;;;;;;;;;5074281;28;20249;-56
2023/04/13 14:05:22;;;;;;;2.30;1.67;;;;;;;;;;5074072;28;20199;-56
2023/04/13 14:07:48;;;;;;;1.57;1.40;;;;;;;;;;5074342;28;20226;-56
2023/04/13 14:10:14;;;;;;;5.00;1.70;;;;;;;;;;5074250;28;20689;-56
2023/04/13 14:12:41;;;;;;;3.47;1.67;;;;;;;;;;5074088;28;20325;-56
2023/04/13 14:15:08;;;;;;;2.57;1.40;;;;;;;;;;5074053;28;20202;-56
2023/04/13 14:17:35;;;;;;;3.10;1.20;;;;;;;;;;5073999;28;20201;-56
2023/04/13 14:20:07;;;;;;;1.83;1.30;;;;;;;;;;5074151;28;20197;-56
2023/04/13 14:22:33;;;;;;;2.40;1.10;;;;;;;;;;5073972;28;20582;-56
2023/04/13 14:24:59;;;;;;;1.60;1.07;;;;;;;;;;5074135;28;20200;-56
2023/04/13 14:27:24;;;;;;;1.63;1.13;;;;;;;;;;5073822;28;20544;-56
2023/04/13 14:29:51;;;;;;;1.93;1.00;;;;;;;;;;5073816;28;20220;-56
2023/04/13 14:32:17;;;;;;;2.33;1.53;;;;;;;;;;5073659;28;20235;-57
2023/04/13 14:34:47;;;;;;;2.63;1.47;;;;;;;;;;5073953;28;20192;-57
2023/04/13 14:37:13;;;;;;;1.63;1.30;;;;;;;;;;5073793;28;20227;-55
2023/04/13 14:39:39;;;;;;;3.80;1.67;;;;;;;;;;5073755;28;20249;-55